createdAt,value
2022-09-07T00:02:39.488Z,16.91
2022-09-07T00:05:43.210Z,16.87
2022-09-07T00:08:44.949Z,16.85
2022-09-07T00:11:46.748Z,16.82
2022-09-07T00:14:48.430Z,16.77
2022-09-07T00:17:50.289Z,16.78
2022-09-07T00:21:01.922Z,16.80
2022-09-07T00:24:03.798Z,16.76
2022-09-07T00:27:05.612Z,16.77
2022-09-07T00:30:10.032Z,16.77
2022-09-07T00:33:11.781Z,16.78
2022-09-07T00:36:13.528Z,16.76
2022-09-07T00:39:15.385Z,16.77
2022-09-07T00:42:20.750Z,16.77
2022-09-07T00:45:22.695Z,16.78
2022-09-07T00:48:31.401Z,16.77
2022-09-07T00:51:40.992Z,16.79
2022-09-07T00:54:56.662Z,16.80
2022-09-07T00:57:59.397Z,16.83
2022-09-07T01:01:01.195Z,16.84
2022-09-07T01:04:03.689Z,16.87
2022-09-07T01:07:05.952Z,16.89
2022-09-07T01:10:09.012Z,16.89
2022-09-07T01:13:10.766Z,16.92
2022-09-07T01:16:40.396Z,16.95
2022-09-07T01:19:42.238Z,16.94
2022-09-07T01:23:05.903Z,16.97
2022-09-07T01:26:35.578Z,16.95
2022-09-07T01:29:57.632Z,16.94
2022-09-07T01:32:59.253Z,16.92
2022-09-07T01:36:19.045Z,16.94
2022-09-07T01:39:28.685Z,16.93
2022-09-07T01:42:41.287Z,16.94
2022-09-07T01:45:45.647Z,16.92
2022-09-07T01:48:51.223Z,16.92
2022-09-07T01:52:03.358Z,16.93
2022-09-07T01:55:21.817Z,16.93
2022-09-07T01:58:46.778Z,16.94
2022-09-07T02:02:07.528Z,16.90
2022-09-07T02:05:16.561Z,16.88
2022-09-07T02:08:21.140Z,16.86
2022-09-07T02:11:36.547Z,16.84
2022-09-07T02:14:43.225Z,16.81
2022-09-07T02:17:58.899Z,16.84
2022-09-07T02:21:02.905Z,16.84
2022-09-07T02:24:12.130Z,16.87
2022-09-07T02:27:19.342Z,16.87
2022-09-07T02:30:21.013Z,16.86
2022-09-07T02:33:22.736Z,16.87
2022-09-07T02:36:29.381Z,16.87
2022-09-07T02:39:31.437Z,16.85
2022-09-07T02:42:34.566Z,16.82
2022-09-07T02:46:15.330Z,16.81
2022-09-07T02:49:54.227Z,16.79
2022-09-07T02:53:17.207Z,16.76
2022-09-07T02:56:29.702Z,16.70
2022-09-07T02:59:54.884Z,16.72
2022-09-07T03:03:24.364Z,16.82
2022-09-07T03:06:32.184Z,16.98
2022-09-07T03:09:38.793Z,17.19
2022-09-07T03:12:46.272Z,17.31
2022-09-07T03:15:51.310Z,17.39
2022-09-07T03:18:55.364Z,17.43
2022-09-07T03:21:57.066Z,17.42
2022-09-07T03:24:58.858Z,17.41
2022-09-07T03:28:00.630Z,17.38
2022-09-07T03:31:03.026Z,17.35
2022-09-07T03:34:05.164Z,17.35
2022-09-07T03:37:06.788Z,17.31
2022-09-07T03:40:13.337Z,17.28
2022-09-07T03:43:15.045Z,17.19
2022-09-07T03:46:19.413Z,17.11
2022-09-07T03:49:21.124Z,17.06
2022-09-07T03:52:22.713Z,17.00
2022-09-07T03:55:24.393Z,16.93
2022-09-07T03:58:25.999Z,16.93
2022-09-07T04:01:28.176Z,16.86
2022-09-07T04:04:29.831Z,16.87
2022-09-07T04:07:31.449Z,16.85
2022-09-07T04:10:38.219Z,16.88
2022-09-07T04:13:40.253Z,16.84
2022-09-07T04:16:42.097Z,16.83
2022-09-07T04:19:43.770Z,16.84
2022-09-07T04:22:50.452Z,16.83
2022-09-07T04:25:55.403Z,16.84
2022-09-07T04:28:57.693Z,16.81
2022-09-07T04:31:59.334Z,16.82
2022-09-07T04:35:00.981Z,16.80
2022-09-07T04:38:02.645Z,16.82
2022-09-07T04:41:08.237Z,16.84
2022-09-07T04:44:16.076Z,16.84
2022-09-07T04:47:18.546Z,16.83
2022-09-07T04:50:20.137Z,16.80
2022-09-07T04:53:21.755Z,16.78
2022-09-07T04:56:24.117Z,16.74
2022-09-07T04:59:25.827Z,16.70
2022-09-07T05:02:27.489Z,16.67
2022-09-07T05:05:29.142Z,16.67
2022-09-07T05:08:35.489Z,16.68
2022-09-07T05:11:37.084Z,16.68
2022-09-07T05:14:38.680Z,16.69
2022-09-07T05:17:40.286Z,16.70
2022-09-07T05:20:42.518Z,16.72
2022-09-07T05:23:45.652Z,16.72
2022-09-07T05:26:47.283Z,16.76
2022-09-07T05:30:05.097Z,16.73
2022-09-07T05:33:10.436Z,16.73
2022-09-07T05:36:12.144Z,16.71
2022-09-07T05:39:13.811Z,16.65
2022-09-07T05:42:15.398Z,16.66
2022-09-07T05:45:17.278Z,16.65
2022-09-07T05:48:18.956Z,16.66
2022-09-07T05:51:20.616Z,16.69
2022-09-07T05:54:22.246Z,16.69
2022-09-07T05:57:23.944Z,16.69
2022-09-07T06:00:34.120Z,16.69
2022-09-07T06:03:37.722Z,16.70
2022-09-07T06:06:39.420Z,16.73
2022-09-07T06:13:04.258Z,16.82
2022-09-07T06:16:08.043Z,16.86
2022-09-07T06:19:10.557Z,16.88
2022-09-07T06:22:13.283Z,16.89
2022-09-07T06:25:15.057Z,16.90
2022-09-07T06:28:16.737Z,16.89
2022-09-07T06:31:20.704Z,16.92
2022-09-07T06:34:23.078Z,16.91
2022-09-07T06:37:24.982Z,17.00
2022-09-07T06:40:26.598Z,17.03
2022-09-07T06:43:28.537Z,17.06
2022-09-07T06:49:51.783Z,17.26
2022-09-07T06:56:17.169Z,17.44
2022-09-07T06:59:18.978Z,17.62
2022-09-07T07:02:20.667Z,17.80
2022-09-07T07:05:22.570Z,18.00
2022-09-07T07:08:26.102Z,18.24
2022-09-07T07:11:27.747Z,18.34
2022-09-07T07:14:33.712Z,18.43
2022-09-07T07:17:36.694Z,18.50
2022-09-07T07:20:40.116Z,18.58
2022-09-07T07:23:42.053Z,18.66
2022-09-07T07:26:48.560Z,18.71
2022-09-07T07:29:50.053Z,18.76
2022-09-07T07:32:52.289Z,18.82
2022-09-07T07:35:54.037Z,18.91
2022-09-07T07:42:03.174Z,19.14
2022-09-07T07:48:31.605Z,19.54
2022-09-07T07:52:49.839Z,19.84
2022-09-07T07:54:54.889Z,19.96
2022-09-07T07:57:56.829Z,19.95
2022-09-07T08:01:04.502Z,19.96
2022-09-07T08:04:06.197Z,19.99
2022-09-07T08:07:11.158Z,20.03
2022-09-07T08:10:13.398Z,20.07
2022-09-07T08:13:16.769Z,20.17
2022-09-07T08:16:19.187Z,20.29
2022-09-07T08:19:20.950Z,20.42
2022-09-07T08:22:25.658Z,20.62
2022-09-07T08:25:28.475Z,20.78
2022-09-07T08:28:32.769Z,20.97
2022-09-07T08:31:38.184Z,21.11
2022-09-07T08:34:40.011Z,21.23
2022-09-07T08:37:41.863Z,21.30
2022-09-07T08:40:44.033Z,21.35
2022-09-07T08:43:53.874Z,21.39
2022-09-07T08:47:07.917Z,21.38
2022-09-07T08:50:12.569Z,21.43
2022-09-07T08:53:17.383Z,21.51
2022-09-07T08:56:33.770Z,21.64
2022-09-07T08:59:54.903Z,21.68
2022-09-07T09:06:37.752Z,21.70
2022-09-07T09:10:19.553Z,21.78
2022-09-07T09:13:39.811Z,21.88
2022-09-07T09:16:46.279Z,21.96
2022-09-07T09:20:57.082Z,22.06
2022-09-07T09:24:20.201Z,22.36
2022-09-07T09:27:22.082Z,22.69
2022-09-07T09:30:24.777Z,23.03
2022-09-07T09:33:33.259Z,23.19
2022-09-07T09:40:09.327Z,23.32
2022-09-07T09:44:12.282Z,23.20
2022-09-07T09:47:45.754Z,23.11
2022-09-07T09:54:20.577Z,23.28
2022-09-07T10:05:32.560Z,23.39
2022-09-07T10:08:41.578Z,23.31
2022-09-07T10:12:05.676Z,23.30
2022-09-07T10:15:24.368Z,23.21
2022-09-07T10:18:33.584Z,23.23
2022-09-07T10:21:52.151Z,23.09
2022-09-07T10:24:56.174Z,23.15
2022-09-07T10:28:24.830Z,23.34
2022-09-07T10:31:39.644Z,23.43
2022-09-07T10:35:11.088Z,23.53
2022-09-07T10:38:30.783Z,23.77
2022-09-07T10:41:52.590Z,23.92
2022-09-07T10:45:07.506Z,24.06
2022-09-07T10:48:24.387Z,24.22
2022-09-07T10:51:53.767Z,24.25
2022-09-07T10:54:55.748Z,24.24
2022-09-07T10:58:15.699Z,24.06
2022-09-07T11:01:45.178Z,24.10
2022-09-07T11:05:01.252Z,24.18
2022-09-07T11:08:20.652Z,24.26
2022-09-07T11:15:37.934Z,24.21
2022-09-07T11:22:45.219Z,24.26
2022-09-07T11:26:01.991Z,24.25
2022-09-07T11:29:29.366Z,24.36
2022-09-07T11:32:42.596Z,24.46
2022-09-07T11:35:52.644Z,24.60
2022-09-07T11:39:05.020Z,24.55
2022-09-07T11:46:05.028Z,24.64
2022-09-07T11:49:19.929Z,24.72
2022-09-07T11:52:54.220Z,24.81
2022-09-07T11:56:25.836Z,24.91
2022-09-07T12:00:01.700Z,24.89
2022-09-07T12:03:47.179Z,24.83
2022-09-07T12:07:10.126Z,24.81
2022-09-07T12:10:14.748Z,24.87
2022-09-07T12:13:28.606Z,24.98
2022-09-07T12:16:48.694Z,25.00
2022-09-07T12:20:19.784Z,24.97
2022-09-07T12:23:29.225Z,25.08
2022-09-07T12:26:34.161Z,25.20
2022-09-07T12:29:36.581Z,25.25
2022-09-07T12:32:55.636Z,25.38
2022-09-07T12:36:00.821Z,25.53
2022-09-07T12:39:18.630Z,25.67
2022-09-07T12:42:36.927Z,25.75
2022-09-07T12:45:39.065Z,25.83
2022-09-07T12:48:52.904Z,25.95
2022-09-07T12:52:17.099Z,26.02
2022-09-07T12:56:19.192Z,25.83
2022-09-07T12:59:49.050Z,25.73
2022-09-07T13:07:04.333Z,25.60
2022-09-07T13:10:26.737Z,25.57
2022-09-07T13:17:28.738Z,25.58
2022-09-07T13:20:34.847Z,25.62
2022-09-07T13:23:51.413Z,25.66
2022-09-07T13:27:11.406Z,25.65
2022-09-07T13:30:16.655Z,25.71
2022-09-07T13:33:24.469Z,25.73
2022-09-07T13:36:30.564Z,25.81
2022-09-07T13:39:44.726Z,25.78
2022-09-07T13:42:47.307Z,25.74
2022-09-07T13:45:54.962Z,25.74
2022-09-07T13:49:06.862Z,25.60
2022-09-07T13:52:21.378Z,25.47
2022-09-07T13:55:32.575Z,25.44
2022-09-07T13:58:35.869Z,25.46
2022-09-07T14:01:45.258Z,25.60
2022-09-07T14:04:50.966Z,25.61
2022-09-07T14:07:52.654Z,25.52
2022-09-07T14:10:54.362Z,25.43
2022-09-07T14:14:18.853Z,25.36
2022-09-07T14:17:20.872Z,25.26
2022-09-07T14:20:23.601Z,25.24
2022-09-07T14:23:30.121Z,25.27
2022-09-07T14:26:32.007Z,25.23
2022-09-07T14:29:35.848Z,25.19
2022-09-07T14:32:37.663Z,25.08
2022-09-07T14:35:40.602Z,25.05
2022-09-07T14:42:07.642Z,25.03
2022-09-07T14:45:22.586Z,24.98
2022-09-07T14:48:31.491Z,24.92
2022-09-07T14:51:36.836Z,24.89
2022-09-07T14:54:39.794Z,24.83
2022-09-07T14:57:41.433Z,24.77
2022-09-07T15:04:18.780Z,24.74
2022-09-07T15:07:41.329Z,24.73
2022-09-07T15:11:32.934Z,24.72
2022-09-07T15:14:19.347Z,24.76
2022-09-07T15:20:45.053Z,24.74
2022-09-07T15:23:53.937Z,24.73
2022-09-07T15:27:03.446Z,24.81
2022-09-07T15:30:05.862Z,24.84
2022-09-07T15:33:07.515Z,24.86
2022-09-07T15:36:14.009Z,24.89
2022-09-07T15:39:24.996Z,24.94
2022-09-07T15:45:51.271Z,25.06
2022-09-07T15:48:55.005Z,25.09
2022-09-07T15:52:05.079Z,25.12
2022-09-07T15:55:08.812Z,25.04
2022-09-07T15:58:13.433Z,24.93
2022-09-07T16:04:38.756Z,24.83
2022-09-07T16:11:19.705Z,24.66
2022-09-07T16:14:21.408Z,24.55
2022-09-07T16:17:27.188Z,24.41
2022-09-07T16:20:38.314Z,24.33
2022-09-07T16:23:43.152Z,24.18
2022-09-07T16:26:45.964Z,24.06
2022-09-07T16:29:48.154Z,24.00
2022-09-07T16:32:50.899Z,23.93
2022-09-07T16:36:00.093Z,23.87
2022-09-07T16:39:06.485Z,23.81
2022-09-07T16:42:11.321Z,23.76
2022-09-07T16:48:36.198Z,23.60
2022-09-07T16:51:39.756Z,23.51
2022-09-07T16:54:41.848Z,23.40
2022-09-07T17:01:07.394Z,23.20
2022-09-07T17:04:11.435Z,23.09
2022-09-07T17:07:13.341Z,23.00
2022-09-07T17:10:15.005Z,22.92
2022-09-07T17:13:18.803Z,22.84
2022-09-07T17:16:29.727Z,22.79
2022-09-07T17:19:31.765Z,22.73
2022-09-07T17:22:33.675Z,22.69
2022-09-07T17:25:35.304Z,22.62
2022-09-07T17:28:37.894Z,22.56
2022-09-07T17:35:01.231Z,22.34
2022-09-07T17:39:14.283Z,22.21
2022-09-07T17:41:28.167Z,22.08
2022-09-07T17:44:34.767Z,22.00
2022-09-07T17:47:39.929Z,21.90
2022-09-07T17:50:42.503Z,21.84
2022-09-07T17:53:45.580Z,21.74
2022-09-07T17:56:47.706Z,21.65
2022-09-07T18:03:12.852Z,21.45
2022-09-07T18:06:14.750Z,21.37
2022-09-07T18:09:16.917Z,21.30
2022-09-07T18:12:18.512Z,21.25
2022-09-07T18:15:22.133Z,21.21
2022-09-07T18:18:23.776Z,21.15
2022-09-07T18:21:32.629Z,21.12
2022-09-07T18:24:53.009Z,21.02
2022-09-07T18:31:46.438Z,20.83
2022-09-07T18:35:50.857Z,20.77
2022-09-07T18:38:30.652Z,20.70
2022-09-07T18:41:45.482Z,20.65
2022-09-07T18:59:03.618Z,20.16
2022-09-07T19:02:32.196Z,20.17
2022-09-07T19:06:09.673Z,20.14
2022-09-07T19:10:12.361Z,20.14
2022-09-07T19:17:50.362Z,20.11
2022-09-07T19:42:49.930Z,20.05
2022-09-07T19:47:02.735Z,20.04
2022-09-07T19:51:36.801Z,20.04
2022-09-07T19:58:55.518Z,19.99
2022-09-07T20:04:38.711Z,20.00
